Silveiras, Brazil
Current Conditions -  °F | °C
As of 6:00 PM on Friday 28 Nov 2014 (Local Time) from SBGW Reporting Station
Overcast Overcast  
Wind Chill: 79°   Ceiling: 4000
Heat Index: 80°   Visibility: 6mi
Dew Point: 63°   Wind: 3mph
Humidity: 57%   Direction: 150°SSE
Pressure: 30"   Gusts: NA
Location:  22.66°S, 44.85°W
Report Text: SBGW 282000Z 15003KT 9999 OVC040 26/17 Q1016
Loading
Personal Weather Stations






























Interactive Weather Map New forecast layout! Learn more

10-Day Weather Forecast

Advertisements
Track Severe Weather on mobile